sensor_id;sensor_type;location;lat;lon;timestamp;P1;durP1;ratioP1;P2;durP2;ratioP2
19414;SDS011;9843;48.882;12.592;2023-08-20T00:02:20;7.93;;;5.80;;
19414;SDS011;9843;48.882;12.592;2023-08-20T00:04:50;11.13;;;8.20;;
19414;SDS011;9843;48.882;12.592;2023-08-20T00:07:17;6.93;;;6.23;;
19414;SDS011;9843;48.882;12.592;2023-08-20T00:09:44;7.93;;;7.10;;
19414;SDS011;9843;48.882;12.592;2023-08-20T00:12:11;7.27;;;6.67;;
19414;SDS011;9843;48.882;12.592;2023-08-20T00:14:52;7.33;;;6.63;;
19414;SDS011;9843;48.882;12.592;2023-08-20T00:17:20;7.90;;;6.87;;
19414;SDS011;9843;48.882;12.592;2023-08-20T00:19:49;7.20;;;6.57;;
19414;SDS011;9843;48.882;12.592;2023-08-20T00:22:16;7.23;;;6.13;;
19414;SDS011;9843;48.882;12.592;2023-08-20T00:24:45;9.03;;;7.30;;
19414;SDS011;9843;48.882;12.592;2023-08-20T00:27:12;8.83;;;7.00;;
19414;SDS011;9843;48.882;12.592;2023-08-20T00:29:39;10.77;;;7.00;;
19414;SDS011;9843;48.882;12.592;2023-08-20T00:32:07;10.20;;;6.77;;
19414;SDS011;9843;48.882;12.592;2023-08-20T00:34:35;8.03;;;6.90;;
19414;SDS011;9843;48.882;12.592;2023-08-20T00:37:02;8.47;;;7.67;;
19414;SDS011;9843;48.882;12.592;2023-08-20T00:39:29;8.97;;;6.77;;
19414;SDS011;9843;48.882;12.592;2023-08-20T00:41:56;11.50;;;7.30;;
19414;SDS011;9843;48.882;12.592;2023-08-20T00:44:23;9.63;;;7.27;;
19414;SDS011;9843;48.882;12.592;2023-08-20T00:46:50;9.33;;;6.20;;
19414;SDS011;9843;48.882;12.592;2023-08-20T00:49:19;7.00;;;6.30;;
19414;SDS011;9843;48.882;12.592;2023-08-20T00:51:46;6.73;;;6.03;;
19414;SDS011;9843;48.882;12.592;2023-08-20T00:54:14;10.50;;;7.37;;
19414;SDS011;9843;48.882;12.592;2023-08-20T00:56:41;8.47;;;7.20;;
19414;SDS011;9843;48.882;12.592;2023-08-20T00:59:08;8.13;;;7.33;;
19414;SDS011;9843;48.882;12.592;2023-08-20T01:01:35;8.23;;;7.40;;
19414;SDS011;9843;48.882;12.592;2023-08-20T01:04:03;11.43;;;8.73;;
19414;SDS011;9843;48.882;12.592;2023-08-20T01:06:33;7.73;;;6.37;;
19414;SDS011;9843;48.882;12.592;2023-08-20T01:09:05;11.17;;;7.13;;
19414;SDS011;9843;48.882;12.592;2023-08-20T01:11:33;9.40;;;8.37;;
19414;SDS011;9843;48.882;12.592;2023-08-20T01:14:13;11.10;;;7.57;;
19414;SDS011;9843;48.882;12.592;2023-08-20T01:16:41;10.40;;;7.60;;
19414;SDS011;9843;48.882;12.592;2023-08-20T01:19:09;7.57;;;6.67;;
19414;SDS011;9843;48.882;12.592;2023-08-20T01:21:39;8.67;;;6.63;;
19414;SDS011;9843;48.882;12.592;2023-08-20T01:24:10;9.30;;;7.30;;
19414;SDS011;9843;48.882;12.592;2023-08-20T01:26:55;7.87;;;7.07;;
19414;SDS011;9843;48.882;12.592;2023-08-20T01:29:24;7.13;;;6.30;;
19414;SDS011;9843;48.882;12.592;2023-08-20T01:31:52;7.70;;;6.90;;
19414;SDS011;9843;48.882;12.592;2023-08-20T01:34:20;8.83;;;7.93;;
19414;SDS011;9843;48.882;12.592;2023-08-20T01:36:47;7.03;;;6.20;;
19414;SDS011;9843;48.882;12.592;2023-08-20T01:39:14;9.80;;;7.07;;
19414;SDS011;9843;48.882;12.592;2023-08-20T01:41:43;9.97;;;6.97;;
19414;SDS011;9843;48.882;12.592;2023-08-20T01:44:10;10.47;;;8.23;;
19414;SDS011;9843;48.882;12.592;2023-08-20T01:46:39;9.50;;;7.03;;
19414;SDS011;9843;48.882;12.592;2023-08-20T01:49:06;10.13;;;8.20;;
19414;SDS011;9843;48.882;12.592;2023-08-20T01:51:33;6.57;;;5.97;;
19414;SDS011;9843;48.882;12.592;2023-08-20T01:54:01;7.93;;;7.10;;
19414;SDS011;9843;48.882;12.592;2023-08-20T01:56:28;10.20;;;6.90;;
19414;SDS011;9843;48.882;12.592;2023-08-20T01:58:55;8.40;;;6.87;;
19414;SDS011;9843;48.882;12.592;2023-08-20T02:01:22;8.87;;;6.50;;
19414;SDS011;9843;48.882;12.592;2023-08-20T02:03:51;7.30;;;6.07;;
19414;SDS011;9843;48.882;12.592;2023-08-20T02:06:18;7.33;;;6.63;;
19414;SDS011;9843;48.882;12.592;2023-08-20T02:08:45;6.67;;;6.07;;
19414;SDS011;9843;48.882;12.592;2023-08-20T02:11:13;8.07;;;7.27;;
19414;SDS011;9843;48.882;12.592;2023-08-20T02:13:40;7.90;;;6.80;;
19414;SDS011;9843;48.882;12.592;2023-08-20T02:16:07;6.70;;;6.10;;
19414;SDS011;9843;48.882;12.592;2023-08-20T02:18:35;8.23;;;7.13;;
19414;SDS011;9843;48.882;12.592;2023-08-20T02:21:03;8.27;;;6.17;;
19414;SDS011;9843;48.882;12.592;2023-08-20T02:23:30;7.33;;;6.70;;
19414;SDS011;9843;48.882;12.592;2023-08-20T02:25:58;7.53;;;6.73;;
19414;SDS011;9843;48.882;12.592;2023-08-20T02:28:25;7.50;;;6.60;;
19414;SDS011;9843;48.882;12.592;2023-08-20T02:30:52;10.80;;;7.83;;
19414;SDS011;9843;48.882;12.592;2023-08-20T02:33:20;7.97;;;7.17;;
19414;SDS011;9843;48.882;12.592;2023-08-20T02:35:47;7.73;;;7.00;;
19414;SDS011;9843;48.882;12.592;2023-08-20T02:38:15;8.17;;;7.33;;
19414;SDS011;9843;48.882;12.592;2023-08-20T02:40:42;10.77;;;7.27;;
19414;SDS011;9843;48.882;12.592;2023-08-20T02:43:09;13.30;;;8.93;;
19414;SDS011;9843;48.882;12.592;2023-08-20T02:45:40;9.23;;;7.90;;
19414;SDS011;9843;48.882;12.592;2023-08-20T02:48:07;8.27;;;6.83;;
19414;SDS011;9843;48.882;12.592;2023-08-20T02:50:35;8.30;;;7.50;;
19414;SDS011;9843;48.882;12.592;2023-08-20T02:53:02;8.83;;;6.87;;
19414;SDS011;9843;48.882;12.592;2023-08-20T02:55:31;8.93;;;7.80;;
19414;SDS011;9843;48.882;12.592;2023-08-20T02:57:58;8.83;;;7.90;;
19414;SDS011;9843;48.882;12.592;2023-08-20T03:00:25;12.67;;;8.57;;
19414;SDS011;9843;48.882;12.592;2023-08-20T03:02:52;14.93;;;8.40;;
19414;SDS011;9843;48.882;12.592;2023-08-20T03:05:19;7.03;;;6.33;;
19414;SDS011;9843;48.882;12.592;2023-08-20T03:07:47;9.00;;;7.67;;
19414;SDS011;9843;48.882;12.592;2023-08-20T03:10:14;8.17;;;7.30;;
19414;SDS011;9843;48.882;12.592;2023-08-20T03:12:42;8.87;;;7.60;;
19414;SDS011;9843;48.882;12.592;2023-08-20T03:15:09;8.07;;;7.37;;
19414;SDS011;9843;48.882;12.592;2023-08-20T03:17:36;10.53;;;7.03;;
19414;SDS011;9843;48.882;12.592;2023-08-20T03:20:04;10.97;;;8.60;;
19414;SDS011;9843;48.882;12.592;2023-08-20T03:22:31;8.53;;;6.47;;
19414;SDS011;9843;48.882;12.592;2023-08-20T03:24:58;9.73;;;7.97;;
19414;SDS011;9843;48.882;12.592;2023-08-20T03:27:25;7.97;;;7.17;;
19414;SDS011;9843;48.882;12.592;2023-08-20T03:29:54;8.57;;;6.90;;
19414;SDS011;9843;48.882;12.592;2023-08-20T03:32:21;10.10;;;8.17;;
19414;SDS011;9843;48.882;12.592;2023-08-20T03:34:48;8.97;;;7.60;;
19414;SDS011;9843;48.882;12.592;2023-08-20T03:37:15;6.93;;;6.33;;
19414;SDS011;9843;48.882;12.592;2023-08-20T03:39:43;11.07;;;8.63;;
19414;SDS011;9843;48.882;12.592;2023-08-20T03:42:10;17.80;;;9.40;;
19414;SDS011;9843;48.882;12.592;2023-08-20T03:44:37;8.80;;;7.87;;
19414;SDS011;9843;48.882;12.592;2023-08-20T03:47:05;9.80;;;8.80;;
19414;SDS011;9843;48.882;12.592;2023-08-20T03:49:32;8.70;;;7.07;;
19414;SDS011;9843;48.882;12.592;2023-08-20T03:51:59;9.73;;;7.90;;
19414;SDS011;9843;48.882;12.592;2023-08-20T03:54:27;8.97;;;8.00;;
19414;SDS011;9843;48.882;12.592;2023-08-20T03:56:54;8.10;;;7.23;;
19414;SDS011;9843;48.882;12.592;2023-08-20T03:59:21;11.00;;;8.07;;
19414;SDS011;9843;48.882;12.592;2023-08-20T04:01:48;10.10;;;9.00;;
19414;SDS011;9843;48.882;12.592;2023-08-20T04:04:17;10.83;;;8.57;;
19414;SDS011;9843;48.882;12.592;2023-08-20T04:06:44;10.63;;;8.53;;
19414;SDS011;9843;48.882;12.592;2023-08-20T04:09:11;12.27;;;7.00;;
19414;SDS011;9843;48.882;12.592;2023-08-20T04:11:38;8.70;;;7.90;;
19414;SDS011;9843;48.882;12.592;2023-08-20T04:14:05;12.77;;;8.00;;
19414;SDS011;9843;48.882;12.592;2023-08-20T04:16:32;9.23;;;8.30;;
19414;SDS011;9843;48.882;12.592;2023-08-20T04:18:59;8.47;;;7.67;;
19414;SDS011;9843;48.882;12.592;2023-08-20T04:21:27;8.60;;;7.73;;
19414;SDS011;9843;48.882;12.592;2023-08-20T04:23:54;8.90;;;8.00;;
19414;SDS011;9843;48.882;12.592;2023-08-20T04:26:21;9.53;;;7.63;;
19414;SDS011;9843;48.882;12.592;2023-08-20T04:28:48;12.87;;;8.03;;
19414;SDS011;9843;48.882;12.592;2023-08-20T04:31:15;10.00;;;8.33;;
19414;SDS011;9843;48.882;12.592;2023-08-20T04:33:42;7.97;;;7.27;;
19414;SDS011;9843;48.882;12.592;2023-08-20T04:36:09;11.97;;;7.07;;
19414;SDS011;9843;48.882;12.592;2023-08-20T04:38:38;9.70;;;8.70;;
19414;SDS011;9843;48.882;12.592;2023-08-20T04:41:05;11.43;;;8.77;;
19414;SDS011;9843;48.882;12.592;2023-08-20T04:43:32;8.30;;;7.60;;
19414;SDS011;9843;48.882;12.592;2023-08-20T04:45:59;9.83;;;8.20;;
19414;SDS011;9843;48.882;12.592;2023-08-20T04:48:26;10.73;;;9.10;;
19414;SDS011;9843;48.882;12.592;2023-08-20T04:50:53;10.50;;;9.40;;
19414;SDS011;9843;48.882;12.592;2023-08-20T04:53:20;13.07;;;9.40;;
19414;SDS011;9843;48.882;12.592;2023-08-20T04:55:48;11.13;;;9.27;;
19414;SDS011;9843;48.882;12.592;2023-08-20T04:58:15;11.17;;;7.50;;
19414;SDS011;9843;48.882;12.592;2023-08-20T05:00:42;10.83;;;8.07;;
19414;SDS011;9843;48.882;12.592;2023-08-20T05:03:09;16.73;;;10.57;;
19414;SDS011;9843;48.882;12.592;2023-08-20T05:05:37;8.53;;;7.63;;
19414;SDS011;9843;48.882;12.592;2023-08-20T05:08:04;9.87;;;8.33;;
19414;SDS011;9843;48.882;12.592;2023-08-20T05:10:31;11.47;;;10.27;;
19414;SDS011;9843;48.882;12.592;2023-08-20T05:12:59;9.40;;;8.43;;
19414;SDS011;9843;48.882;12.592;2023-08-20T05:15:26;9.67;;;7.47;;
19414;SDS011;9843;48.882;12.592;2023-08-20T05:17:53;12.37;;;8.57;;
19414;SDS011;9843;48.882;12.592;2023-08-20T05:20:20;8.50;;;7.37;;
19414;SDS011;9843;48.882;12.592;2023-08-20T05:22:47;11.40;;;7.77;;
19414;SDS011;9843;48.882;12.592;2023-08-20T05:25:14;10.63;;;8.80;;
19414;SDS011;9843;48.882;12.592;2023-08-20T05:27:41;9.13;;;8.23;;
19414;SDS011;9843;48.882;12.592;2023-08-20T05:30:10;10.30;;;8.47;;
19414;SDS011;9843;48.882;12.592;2023-08-20T05:32:38;9.93;;;8.07;;
19414;SDS011;9843;48.882;12.592;2023-08-20T05:35:05;7.53;;;6.83;;
19414;SDS011;9843;48.882;12.592;2023-08-20T05:37:32;8.70;;;7.80;;
19414;SDS011;9843;48.882;12.592;2023-08-20T05:39:59;10.90;;;8.33;;
19414;SDS011;9843;48.882;12.592;2023-08-20T05:42:27;11.10;;;8.67;;
19414;SDS011;9843;48.882;12.592;2023-08-20T05:44:54;10.30;;;8.57;;
19414;SDS011;9843;48.882;12.592;2023-08-20T05:47:23;11.57;;;7.77;;
19414;SDS011;9843;48.882;12.592;2023-08-20T05:49:50;14.53;;;9.03;;
19414;SDS011;9843;48.882;12.592;2023-08-20T05:52:17;10.90;;;8.73;;
19414;SDS011;9843;48.882;12.592;2023-08-20T05:54:44;10.23;;;8.03;;
19414;SDS011;9843;48.882;12.592;2023-08-20T05:57:11;20.70;;;9.63;;
19414;SDS011;9843;48.882;12.592;2023-08-20T05:59:39;11.20;;;8.87;;
19414;SDS011;9843;48.882;12.592;2023-08-20T06:02:06;9.87;;;8.27;;
19414;SDS011;9843;48.882;12.592;2023-08-20T06:04:34;12.57;;;9.57;;
19414;SDS011;9843;48.882;12.592;2023-08-20T06:07:01;11.23;;;9.60;;
19414;SDS011;9843;48.882;12.592;2023-08-20T06:09:28;9.97;;;8.00;;
19414;SDS011;9843;48.882;12.592;2023-08-20T06:11:55;12.53;;;8.57;;
19414;SDS011;9843;48.882;12.592;2023-08-20T06:14:22;8.87;;;8.03;;
19414;SDS011;9843;48.882;12.592;2023-08-20T06:16:49;10.37;;;9.13;;
19414;SDS011;9843;48.882;12.592;2023-08-20T06:19:16;12.60;;;8.50;;
19414;SDS011;9843;48.882;12.592;2023-08-20T06:21:45;9.17;;;8.33;;
19414;SDS011;9843;48.882;12.592;2023-08-20T06:24:12;15.00;;;8.90;;
19414;SDS011;9843;48.882;12.592;2023-08-20T06:26:39;14.10;;;9.02;;
19414;SDS011;9843;48.882;12.592;2023-08-20T06:29:06;11.27;;;9.00;;
19414;SDS011;9843;48.882;12.592;2023-08-20T06:31:33;9.60;;;8.27;;
19414;SDS011;9843;48.882;12.592;2023-08-20T06:34:00;9.70;;;8.70;;
19414;SDS011;9843;48.882;12.592;2023-08-20T06:36:27;9.32;;;8.35;;
19414;SDS011;9843;48.882;12.592;2023-08-20T06:38:55;10.57;;;7.90;;
19414;SDS011;9843;48.882;12.592;2023-08-20T06:41:22;8.88;;;7.95;;
19414;SDS011;9843;48.882;12.592;2023-08-20T06:43:49;8.63;;;7.50;;
19414;SDS011;9843;48.882;12.592;2023-08-20T06:46:17;7.35;;;6.60;;
19414;SDS011;9843;48.882;12.592;2023-08-20T06:48:44;8.00;;;6.95;;
19414;SDS011;9843;48.882;12.592;2023-08-20T06:51:11;7.72;;;6.45;;
19414;SDS011;9843;48.882;12.592;2023-08-20T06:53:38;8.18;;;7.38;;
19414;SDS011;9843;48.882;12.592;2023-08-20T06:56:07;9.98;;;6.60;;
19414;SDS011;9843;48.882;12.592;2023-08-20T06:58:34;8.30;;;7.50;;
19414;SDS011;9843;48.882;12.592;2023-08-20T07:01:01;8.82;;;7.97;;
19414;SDS011;9843;48.882;12.592;2023-08-20T07:03:33;7.03;;;6.07;;
19414;SDS011;9843;48.882;12.592;2023-08-20T07:06:00;7.43;;;6.18;;
19414;SDS011;9843;48.882;12.592;2023-08-20T07:08:28;12.38;;;7.05;;
19414;SDS011;9843;48.882;12.592;2023-08-20T07:10:55;7.10;;;6.40;;
19414;SDS011;9843;48.882;12.592;2023-08-20T07:13:23;7.22;;;6.47;;
19414;SDS011;9843;48.882;12.592;2023-08-20T07:15:50;6.65;;;5.97;;
19414;SDS011;9843;48.882;12.592;2023-08-20T07:18:18;10.73;;;6.43;;
19414;SDS011;9843;48.882;12.592;2023-08-20T07:20:45;10.73;;;6.95;;
19414;SDS011;9843;48.882;12.592;2023-08-20T07:23:12;8.73;;;6.57;;
19414;SDS011;9843;48.882;12.592;2023-08-20T07:25:40;8.38;;;6.57;;
19414;SDS011;9843;48.882;12.592;2023-08-20T07:28:08;9.00;;;6.88;;
19414;SDS011;9843;48.882;12.592;2023-08-20T07:30:36;8.15;;;7.43;;
19414;SDS011;9843;48.882;12.592;2023-08-20T07:33:03;10.55;;;8.90;;
19414;SDS011;9843;48.882;12.592;2023-08-20T07:35:31;7.93;;;6.25;;
19414;SDS011;9843;48.882;12.592;2023-08-20T07:37:58;8.63;;;6.75;;
19414;SDS011;9843;48.882;12.592;2023-08-20T07:40:25;9.75;;;7.13;;
19414;SDS011;9843;48.882;12.592;2023-08-20T07:42:52;7.70;;;6.95;;
19414;SDS011;9843;48.882;12.592;2023-08-20T07:45:19;6.63;;;6.03;;
19414;SDS011;9843;48.882;12.592;2023-08-20T07:47:47;7.00;;;5.97;;
19414;SDS011;9843;48.882;12.592;2023-08-20T07:50:14;11.25;;;6.93;;
19414;SDS011;9843;48.882;12.592;2023-08-20T07:52:41;6.95;;;6.32;;
19414;SDS011;9843;48.882;12.592;2023-08-20T07:55:09;12.10;;;6.75;;
19414;SDS011;9843;48.882;12.592;2023-08-20T07:57:36;6.72;;;6.13;;
19414;SDS011;9843;48.882;12.592;2023-08-20T08:00:03;5.68;;;4.95;;
19414;SDS011;9843;48.882;12.592;2023-08-20T08:02:30;6.63;;;6.00;;
19414;SDS011;9843;48.882;12.592;2023-08-20T08:04:58;7.82;;;5.40;;
19414;SDS011;9843;48.882;12.592;2023-08-20T08:07:26;8.07;;;4.93;;
19414;SDS011;9843;48.882;12.592;2023-08-20T08:09:53;9.10;;;5.60;;
19414;SDS011;9843;48.882;12.592;2023-08-20T08:12:20;5.35;;;4.28;;
19414;SDS011;9843;48.882;12.592;2023-08-20T08:14:47;5.57;;;4.40;;
19414;SDS011;9843;48.882;12.592;2023-08-20T08:17:14;6.75;;;5.65;;
19414;SDS011;9843;48.882;12.592;2023-08-20T08:19:41;5.22;;;4.72;;
19414;SDS011;9843;48.882;12.592;2023-08-20T08:22:09;5.38;;;4.85;;
19414;SDS011;9843;48.882;12.592;2023-08-20T08:24:36;9.07;;;6.57;;
19414;SDS011;9843;48.882;12.592;2023-08-20T08:27:06;5.30;;;4.75;;
19414;SDS011;9843;48.882;12.592;2023-08-20T08:29:34;6.22;;;5.15;;
19414;SDS011;9843;48.882;12.592;2023-08-20T08:32:01;8.65;;;4.82;;
19414;SDS011;9843;48.882;12.592;2023-08-20T08:34:28;6.47;;;4.47;;
19414;SDS011;9843;48.882;12.592;2023-08-20T08:36:55;6.80;;;4.50;;
19414;SDS011;9843;48.882;12.592;2023-08-20T08:39:23;7.07;;;3.80;;
19414;SDS011;9843;48.882;12.592;2023-08-20T08:41:50;6.88;;;4.35;;
19414;SDS011;9843;48.882;12.592;2023-08-20T08:44:20;9.23;;;4.95;;
19414;SDS011;9843;48.882;12.592;2023-08-20T08:46:48;4.40;;;4.00;;
19414;SDS011;9843;48.882;12.592;2023-08-20T08:49:16;4.60;;;3.80;;
19414;SDS011;9843;48.882;12.592;2023-08-20T08:51:44;7.03;;;4.45;;
19414;SDS011;9843;48.882;12.592;2023-08-20T08:54:12;5.18;;;3.22;;
19414;SDS011;9843;48.882;12.592;2023-08-20T08:56:41;5.15;;;4.57;;
19414;SDS011;9843;48.882;12.592;2023-08-20T08:59:08;4.95;;;4.40;;
19414;SDS011;9843;48.882;12.592;2023-08-20T09:01:38;7.00;;;5.65;;
19414;SDS011;9843;48.882;12.592;2023-08-20T09:04:05;3.38;;;2.70;;
19414;SDS011;9843;48.882;12.592;2023-08-20T09:06:44;5.75;;;4.10;;
19414;SDS011;9843;48.882;12.592;2023-08-20T09:09:11;6.72;;;4.65;;
19414;SDS011;9843;48.882;12.592;2023-08-20T09:11:38;6.20;;;5.00;;
19414;SDS011;9843;48.882;12.592;2023-08-20T09:14:07;8.07;;;4.30;;
19414;SDS011;9843;48.882;12.592;2023-08-20T09:16:34;4.35;;;3.95;;
19414;SDS011;9843;48.882;12.592;2023-08-20T09:19:01;5.10;;;4.18;;
19414;SDS011;9843;48.882;12.592;2023-08-20T09:21:29;9.10;;;4.95;;
19414;SDS011;9843;48.882;12.592;2023-08-20T09:23:56;8.93;;;5.15;;
19414;SDS011;9843;48.882;12.592;2023-08-20T09:26:24;4.10;;;3.72;;
19414;SDS011;9843;48.882;12.592;2023-08-20T09:28:53;3.47;;;3.10;;
19414;SDS011;9843;48.882;12.592;2023-08-20T09:31:36;6.10;;;4.40;;
19414;SDS011;9843;48.882;12.592;2023-08-20T09:34:03;4.90;;;4.40;;
19414;SDS011;9843;48.882;12.592;2023-08-20T09:36:31;9.15;;;5.00;;
19414;SDS011;9843;48.882;12.592;2023-08-20T09:38:58;5.10;;;4.60;;
19414;SDS011;9843;48.882;12.592;2023-08-20T09:41:25;4.07;;;3.70;;
19414;SDS011;9843;48.882;12.592;2023-08-20T09:43:55;4.63;;;4.22;;
19414;SDS011;9843;48.882;12.592;2023-08-20T09:46:24;7.55;;;4.07;;
19414;SDS011;9843;48.882;12.592;2023-08-20T09:48:52;4.28;;;3.78;;
19414;SDS011;9843;48.882;12.592;2023-08-20T09:51:24;2.97;;;2.67;;
19414;SDS011;9843;48.882;12.592;2023-08-20T09:53:53;4.90;;;3.90;;
19414;SDS011;9843;48.882;12.592;2023-08-20T09:56:24;3.95;;;3.50;;
19414;SDS011;9843;48.882;12.592;2023-08-20T09:58:53;12.23;;;3.97;;
19414;SDS011;9843;48.882;12.592;2023-08-20T10:01:21;3.60;;;3.30;;
19414;SDS011;9843;48.882;12.592;2023-08-20T10:03:50;3.85;;;3.42;;
19414;SDS011;9843;48.882;12.592;2023-08-20T10:06:17;6.82;;;3.70;;
19414;SDS011;9843;48.882;12.592;2023-08-20T10:08:45;3.90;;;3.45;;
19414;SDS011;9843;48.882;12.592;2023-08-20T10:11:14;3.03;;;2.72;;
19414;SDS011;9843;48.882;12.592;2023-08-20T10:13:41;3.67;;;3.08;;
19414;SDS011;9843;48.882;12.592;2023-08-20T10:16:08;7.03;;;4.60;;
19414;SDS011;9843;48.882;12.592;2023-08-20T10:18:38;4.07;;;3.78;;
19414;SDS011;9843;48.882;12.592;2023-08-20T10:21:07;5.15;;;3.10;;
19414;SDS011;9843;48.882;12.592;2023-08-20T10:23:35;6.57;;;4.18;;
19414;SDS011;9843;48.882;12.592;2023-08-20T10:26:09;3.80;;;2.65;;
19414;SDS011;9843;48.882;12.592;2023-08-20T10:28:36;9.65;;;4.85;;
19414;SDS011;9843;48.882;12.592;2023-08-20T10:31:06;3.60;;;3.30;;
19414;SDS011;9843;48.882;12.592;2023-08-20T10:33:33;4.57;;;3.70;;
19414;SDS011;9843;48.882;12.592;2023-08-20T10:36:08;5.65;;;3.40;;
19414;SDS011;9843;48.882;12.592;2023-08-20T10:38:36;4.90;;;2.88;;
19414;SDS011;9843;48.882;12.592;2023-08-20T10:41:05;5.05;;;4.10;;
19414;SDS011;9843;48.882;12.592;2023-08-20T10:43:33;4.38;;;3.25;;
19414;SDS011;9843;48.882;12.592;2023-08-20T10:46:04;5.25;;;3.83;;
19414;SDS011;9843;48.882;12.592;2023-08-20T10:48:31;3.85;;;3.42;;
19414;SDS011;9843;48.882;12.592;2023-08-20T10:51:05;14.93;;;5.65;;
19414;SDS011;9843;48.882;12.592;2023-08-20T10:53:34;3.42;;;3.13;;
19414;SDS011;9843;48.882;12.592;2023-08-20T10:56:08;4.43;;;3.40;;
19414;SDS011;9843;48.882;12.592;2023-08-20T10:58:35;3.83;;;3.35;;
19414;SDS011;9843;48.882;12.592;2023-08-20T11:03:56;3.83;;;3.53;;
19414;SDS011;9843;48.882;12.592;2023-08-20T11:06:25;4.40;;;3.20;;
19414;SDS011;9843;48.882;12.592;2023-08-20T11:08:59;3.78;;;3.45;;
19414;SDS011;9843;48.882;12.592;2023-08-20T11:11:28;7.85;;;3.33;;
19414;SDS011;9843;48.882;12.592;2023-08-20T11:13:56;4.60;;;4.20;;
19414;SDS011;9843;48.882;12.592;2023-08-20T11:16:23;5.97;;;4.25;;
19414;SDS011;9843;48.882;12.592;2023-08-20T11:18:51;3.55;;;3.03;;
19414;SDS011;9843;48.882;12.592;2023-08-20T11:21:19;5.70;;;3.75;;
19414;SDS011;9843;48.882;12.592;2023-08-20T11:23:46;4.35;;;3.30;;
19414;SDS011;9843;48.882;12.592;2023-08-20T11:26:16;6.80;;;3.38;;
19414;SDS011;9843;48.882;12.592;2023-08-20T11:28:44;3.45;;;2.60;;
19414;SDS011;9843;48.882;12.592;2023-08-20T11:31:12;3.83;;;3.53;;
19414;SDS011;9843;48.882;12.592;2023-08-20T11:33:39;5.03;;;3.03;;
19414;SDS011;9843;48.882;12.592;2023-08-20T11:36:06;3.88;;;3.40;;
19414;SDS011;9843;48.882;12.592;2023-08-20T11:38:33;3.17;;;2.88;;
19414;SDS011;9843;48.882;12.592;2023-08-20T11:41:00;3.45;;;3.08;;
19414;SDS011;9843;48.882;12.592;2023-08-20T11:43:29;7.60;;;4.50;;
19414;SDS011;9843;48.882;12.592;2023-08-20T11:45:56;4.68;;;2.72;;
19414;SDS011;9843;48.882;12.592;2023-08-20T11:48:23;5.65;;;3.38;;
19414;SDS011;9843;48.882;12.592;2023-08-20T11:50:50;5.18;;;2.65;;
19414;SDS011;9843;48.882;12.592;2023-08-20T11:53:20;4.97;;;3.40;;
19414;SDS011;9843;48.882;12.592;2023-08-20T11:55:48;3.97;;;2.63;;
19414;SDS011;9843;48.882;12.592;2023-08-20T11:58:15;4.35;;;2.88;;
19414;SDS011;9843;48.882;12.592;2023-08-20T12:00:57;6.35;;;2.53;;
19414;SDS011;9843;48.882;12.592;2023-08-20T12:03:59;4.30;;;3.17;;
19414;SDS011;9843;48.882;12.592;2023-08-20T12:06:33;4.07;;;3.65;;
19414;SDS011;9843;48.882;12.592;2023-08-20T12:09:07;7.95;;;3.25;;
19414;SDS011;9843;48.882;12.592;2023-08-20T12:11:58;3.55;;;3.25;;
19414;SDS011;9843;48.882;12.592;2023-08-20T12:14:25;5.03;;;3.03;;
19414;SDS011;9843;48.882;12.592;2023-08-20T12:17:02;4.72;;;3.08;;
19414;SDS011;9843;48.882;12.592;2023-08-20T12:19:30;6.20;;;2.88;;
19414;SDS011;9843;48.882;12.592;2023-08-20T12:21:57;3.55;;;3.22;;
19414;SDS011;9843;48.882;12.592;2023-08-20T12:24:24;4.78;;;4.22;;
19414;SDS011;9843;48.882;12.592;2023-08-20T12:26:55;3.92;;;3.40;;
19414;SDS011;9843;48.882;12.592;2023-08-20T12:29:40;3.50;;;3.20;;
19414;SDS011;9843;48.882;12.592;2023-08-20T12:32:13;2.90;;;2.55;;
19414;SDS011;9843;48.882;12.592;2023-08-20T12:34:41;4.60;;;3.33;;
19414;SDS011;9843;48.882;12.592;2023-08-20T12:37:13;5.13;;;3.75;;
19414;SDS011;9843;48.882;12.592;2023-08-20T12:39:40;4.07;;;3.10;;
19414;SDS011;9843;48.882;12.592;2023-08-20T12:42:07;3.72;;;3.20;;
19414;SDS011;9843;48.882;12.592;2023-08-20T12:44:34;3.10;;;2.80;;
19414;SDS011;9843;48.882;12.592;2023-08-20T12:47:01;5.68;;;3.25;;
19414;SDS011;9843;48.882;12.592;2023-08-20T12:49:30;4.30;;;3.08;;
19414;SDS011;9843;48.882;12.592;2023-08-20T12:51:57;3.55;;;3.08;;
19414;SDS011;9843;48.882;12.592;2023-08-20T12:54:24;5.60;;;3.28;;
19414;SDS011;9843;48.882;12.592;2023-08-20T12:56:51;11.40;;;3.60;;
19414;SDS011;9843;48.882;12.592;2023-08-20T12:59:18;6.43;;;2.97;;
19414;SDS011;9843;48.882;12.592;2023-08-20T13:01:45;5.40;;;3.63;;
19414;SDS011;9843;48.882;12.592;2023-08-20T13:04:12;4.63;;;3.60;;
19414;SDS011;9843;48.882;12.592;2023-08-20T13:06:41;5.28;;;3.30;;
19414;SDS011;9843;48.882;12.592;2023-08-20T13:09:08;6.72;;;3.30;;
19414;SDS011;9843;48.882;12.592;2023-08-20T13:11:36;7.45;;;3.88;;
19414;SDS011;9843;48.882;12.592;2023-08-20T13:14:05;6.22;;;3.55;;
19414;SDS011;9843;48.882;12.592;2023-08-20T13:16:33;4.85;;;3.17;;
19414;SDS011;9843;48.882;12.592;2023-08-20T13:19:00;8.18;;;4.20;;
19414;SDS011;9843;48.882;12.592;2023-08-20T13:21:27;4.82;;;3.75;;
19414;SDS011;9843;48.882;12.592;2023-08-20T13:23:56;9.25;;;3.20;;
19414;SDS011;9843;48.882;12.592;2023-08-20T13:26:23;4.47;;;2.72;;
19414;SDS011;9843;48.882;12.592;2023-08-20T13:28:50;7.70;;;3.22;;
19414;SDS011;9843;48.882;12.592;2023-08-20T13:31:17;3.13;;;2.80;;
19414;SDS011;9843;48.882;12.592;2023-08-20T13:33:44;6.07;;;3.05;;
19414;SDS011;9843;48.882;12.592;2023-08-20T13:36:11;6.38;;;3.33;;
19414;SDS011;9843;48.882;12.592;2023-08-20T13:38:38;3.95;;;3.03;;
19414;SDS011;9843;48.882;12.592;2023-08-20T13:41:06;4.32;;;3.00;;
19414;SDS011;9843;48.882;12.592;2023-08-20T13:43:34;3.67;;;3.10;;
19414;SDS011;9843;48.882;12.592;2023-08-20T13:46:01;5.32;;;3.65;;
19414;SDS011;9843;48.882;12.592;2023-08-20T13:48:28;3.72;;;2.92;;
19414;SDS011;9843;48.882;12.592;2023-08-20T13:50:55;6.20;;;3.53;;
19414;SDS011;9843;48.882;12.592;2023-08-20T13:53:22;3.83;;;3.15;;
19414;SDS011;9843;48.882;12.592;2023-08-20T13:55:49;6.10;;;3.45;;
19414;SDS011;9843;48.882;12.592;2023-08-20T13:58:18;4.32;;;2.60;;
19414;SDS011;9843;48.882;12.592;2023-08-20T14:00:45;5.05;;;2.88;;
19414;SDS011;9843;48.882;12.592;2023-08-20T14:03:13;6.15;;;3.30;;
19414;SDS011;9843;48.882;12.592;2023-08-20T14:05:40;8.45;;;3.85;;
19414;SDS011;9843;48.882;12.592;2023-08-20T14:08:07;4.03;;;3.30;;
19414;SDS011;9843;48.882;12.592;2023-08-20T14:10:34;5.28;;;2.70;;
19414;SDS011;9843;48.882;12.592;2023-08-20T14:13:01;9.77;;;3.60;;
19414;SDS011;9843;48.882;12.592;2023-08-20T14:15:30;3.63;;;2.97;;
19414;SDS011;9843;48.882;12.592;2023-08-20T14:17:57;2.80;;;2.30;;
19414;SDS011;9843;48.882;12.592;2023-08-20T14:20:24;5.05;;;3.90;;
19414;SDS011;9843;48.882;12.592;2023-08-20T14:22:51;5.35;;;3.38;;
19414;SDS011;9843;48.882;12.592;2023-08-20T14:25:18;3.22;;;2.75;;
19414;SDS011;9843;48.882;12.592;2023-08-20T14:27:45;5.25;;;2.78;;
19414;SDS011;9843;48.882;12.592;2023-08-20T14:30:12;5.10;;;2.80;;
19414;SDS011;9843;48.882;12.592;2023-08-20T14:32:41;4.80;;;3.13;;
19414;SDS011;9843;48.882;12.592;2023-08-20T14:35:08;6.07;;;3.40;;
19414;SDS011;9843;48.882;12.592;2023-08-20T14:37:35;6.90;;;3.80;;
19414;SDS011;9843;48.882;12.592;2023-08-20T14:40:02;5.88;;;3.60;;
19414;SDS011;9843;48.882;12.592;2023-08-20T14:42:31;4.97;;;3.72;;
19414;SDS011;9843;48.882;12.592;2023-08-20T14:44:58;11.30;;;4.60;;
19414;SDS011;9843;48.882;12.592;2023-08-20T14:47:25;5.03;;;2.85;;
19414;SDS011;9843;48.882;12.592;2023-08-20T14:49:54;3.00;;;2.45;;
19414;SDS011;9843;48.882;12.592;2023-08-20T14:52:21;7.03;;;3.10;;
19414;SDS011;9843;48.882;12.592;2023-08-20T14:54:48;5.30;;;2.90;;